createdAt,value
2022-11-30T00:00:28.900Z,997.03
2022-11-30T00:01:28.895Z,997.09
2022-11-30T00:02:28.969Z,997.12
2022-11-30T00:03:28.887Z,997.08
2022-11-30T00:04:28.870Z,997.00
2022-11-30T00:05:28.859Z,997.00
2022-11-30T00:06:28.856Z,997.01
2022-11-30T00:07:28.900Z,997.02
2022-11-30T00:08:28.839Z,997.02
2022-11-30T00:09:28.832Z,997.00
2022-11-30T00:10:28.824Z,997.03
2022-11-30T00:11:28.889Z,996.98
2022-11-30T00:12:28.831Z,997.02
2022-11-30T00:13:28.799Z,997.01
2022-11-30T00:14:28.795Z,997.05
2022-11-30T00:15:28.786Z,997.04
2022-11-30T00:16:28.875Z,997.11
2022-11-30T00:17:28.800Z,997.08
2022-11-30T00:18:28.771Z,997.05
2022-11-30T00:19:28.753Z,997.03
2022-11-30T00:20:28.747Z,997.05
2022-11-30T00:21:28.740Z,996.98
2022-11-30T00:22:28.753Z,996.95
2022-11-30T00:23:28.720Z,996.99
2022-11-30T00:24:28.711Z,996.96
2022-11-30T00:25:28.703Z,996.97
2022-11-30T00:26:28.701Z,996.99
2022-11-30T00:27:28.712Z,997.03
2022-11-30T00:28:28.677Z,996.94
2022-11-30T00:29:28.668Z,996.91
2022-11-30T00:30:28.697Z,996.93
2022-11-30T00:31:28.665Z,996.98
2022-11-30T00:32:28.676Z,996.99
2022-11-30T00:33:28.648Z,996.98
2022-11-30T00:34:28.631Z,997.02
2022-11-30T00:35:28.627Z,996.93
2022-11-30T00:36:28.617Z,996.94
2022-11-30T00:37:28.631Z,996.93
2022-11-30T00:38:28.605Z,997.03
2022-11-30T00:39:32.422Z,996.94
2022-11-30T00:40:30.588Z,996.95
2022-11-30T00:41:28.581Z,996.97
2022-11-30T00:42:28.602Z,997.00
2022-11-30T00:43:28.562Z,996.98
2022-11-30T00:44:28.554Z,997.05
2022-11-30T00:45:28.548Z,996.99
2022-11-30T00:46:28.592Z,997.01
2022-11-30T00:47:28.568Z,997.03
2022-11-30T00:48:28.525Z,997.01
2022-11-30T00:49:28.518Z,997.05
2022-11-30T00:50:28.510Z,996.95
2022-11-30T00:51:28.497Z,997.00
2022-11-30T00:52:28.496Z,997.03
2022-11-30T00:53:28.507Z,997.01
2022-11-30T00:54:28.474Z,997.02
2022-11-30T00:55:30.430Z,996.97
2022-11-30T00:56:29.459Z,997.03
2022-11-30T00:57:28.455Z,997.02
2022-11-30T00:58:28.468Z,997.01
2022-11-30T00:59:28.434Z,997.03
2022-11-30T01:00:28.422Z,996.97
2022-11-30T01:01:28.465Z,997.00
2022-11-30T01:02:28.465Z,996.93
2022-11-30T01:03:28.428Z,996.97
2022-11-30T01:04:28.399Z,996.99
2022-11-30T01:05:28.384Z,997.05
2022-11-30T01:06:28.384Z,997.03
2022-11-30T01:07:28.390Z,997.02
2022-11-30T01:08:28.388Z,997.03
2022-11-30T01:09:28.358Z,997.05
2022-11-30T01:10:28.344Z,997.03
2022-11-30T01:11:28.335Z,997.05
2022-11-30T01:12:28.332Z,997.05
2022-11-30T01:13:28.356Z,997.00
2022-11-30T01:14:28.318Z,997.06
2022-11-30T01:15:28.308Z,997.05
2022-11-30T01:16:28.303Z,997.04
2022-11-30T01:17:28.298Z,997.09
2022-11-30T01:18:28.307Z,997.05
2022-11-30T01:19:28.276Z,997.05
2022-11-30T01:20:28.269Z,997.03
2022-11-30T01:21:28.265Z,997.00
2022-11-30T01:22:28.254Z,997.04
2022-11-30T01:23:28.273Z,997.02
2022-11-30T01:24:28.235Z,997.05
2022-11-30T01:25:28.227Z,996.96
2022-11-30T01:26:28.220Z,996.97
2022-11-30T01:27:28.212Z,996.96
2022-11-30T01:28:28.229Z,996.95
2022-11-30T01:29:28.196Z,996.94
2022-11-30T01:30:28.241Z,997.01
2022-11-30T01:31:28.182Z,996.91
2022-11-30T01:32:28.170Z,996.94
2022-11-30T01:33:28.189Z,996.96
2022-11-30T01:34:28.155Z,996.87
2022-11-30T01:35:28.149Z,996.84
2022-11-30T01:36:28.141Z,996.91
2022-11-30T01:37:28.136Z,996.91
2022-11-30T01:38:28.159Z,996.93
2022-11-30T01:39:28.119Z,996.89
2022-11-30T01:40:28.113Z,996.88
2022-11-30T01:41:28.110Z,996.92
2022-11-30T01:42:28.096Z,996.86
2022-11-30T01:43:28.115Z,996.94
2022-11-30T01:44:28.084Z,996.93
2022-11-30T01:45:28.069Z,996.91
2022-11-30T01:46:28.168Z,996.91
2022-11-30T01:47:28.056Z,996.84
2022-11-30T01:48:28.069Z,996.89
2022-11-30T01:49:28.044Z,996.85
2022-11-30T01:50:28.036Z,996.91
2022-11-30T01:51:28.024Z,996.90
2022-11-30T01:52:28.015Z,996.87
2022-11-30T01:53:28.032Z,996.89
2022-11-30T01:54:28.004Z,996.96
2022-11-30T01:55:27.989Z,996.92
2022-11-30T01:56:27.981Z,996.94
2022-11-30T01:57:27.976Z,996.90
2022-11-30T01:58:28.001Z,996.95
2022-11-30T01:59:27.959Z,996.95
2022-11-30T02:00:27.956Z,996.95
2022-11-30T02:01:27.994Z,996.92
2022-11-30T02:02:27.999Z,996.97
2022-11-30T02:03:27.954Z,996.97
2022-11-30T02:04:27.928Z,996.92
2022-11-30T02:05:27.916Z,996.93
2022-11-30T02:06:27.901Z,996.97
2022-11-30T02:07:28.021Z,996.96
2022-11-30T02:08:28.011Z,996.95
2022-11-30T02:09:27.889Z,996.93
2022-11-30T02:10:27.875Z,996.88
2022-11-30T02:11:27.869Z,996.95
2022-11-30T02:12:27.862Z,996.90
2022-11-30T02:13:27.876Z,996.96
2022-11-30T02:14:27.846Z,996.89
2022-11-30T02:15:27.897Z,996.91
2022-11-30T02:16:27.829Z,996.98
2022-11-30T02:17:27.820Z,996.95
2022-11-30T02:18:27.837Z,996.99
2022-11-30T02:19:27.804Z,996.94
2022-11-30T02:20:27.797Z,996.92
2022-11-30T02:21:27.789Z,997.01
2022-11-30T02:22:27.780Z,997.00
2022-11-30T02:23:27.800Z,997.01
2022-11-30T02:24:27.771Z,997.04
2022-11-30T02:25:27.762Z,997.05
2022-11-30T02:26:27.752Z,997.05
2022-11-30T02:27:27.740Z,997.05
2022-11-30T02:28:27.738Z,997.03
2022-11-30T02:29:27.754Z,997.06
2022-11-30T02:30:27.717Z,997.09
2022-11-30T02:31:27.755Z,997.08
2022-11-30T02:32:27.704Z,997.04
2022-11-30T02:33:27.695Z,997.13
2022-11-30T02:34:27.712Z,997.10
2022-11-30T02:35:27.677Z,997.08
2022-11-30T02:36:28.675Z,997.10
2022-11-30T02:37:27.669Z,997.06
2022-11-30T02:38:27.661Z,997.05
2022-11-30T02:39:27.680Z,997.03
2022-11-30T02:40:27.639Z,997.07
2022-11-30T02:41:27.641Z,997.01
2022-11-30T02:42:27.625Z,997.05
2022-11-30T02:43:27.622Z,997.01
2022-11-30T02:44:27.639Z,996.98
2022-11-30T02:45:27.606Z,997.03
2022-11-30T02:46:27.635Z,996.96
2022-11-30T02:47:27.592Z,996.97
2022-11-30T02:48:27.587Z,997.03
2022-11-30T02:49:27.598Z,996.87
2022-11-30T02:50:27.570Z,996.97
2022-11-30T02:51:27.563Z,996.93
2022-11-30T02:52:27.556Z,996.92
2022-11-30T02:53:27.547Z,996.87
2022-11-30T02:54:27.565Z,996.94
2022-11-30T02:55:27.531Z,996.92
2022-11-30T02:56:27.523Z,996.98
2022-11-30T02:57:27.515Z,996.93
2022-11-30T02:58:27.507Z,996.90
2022-11-30T02:59:27.533Z,996.97
2022-11-30T03:00:27.489Z,996.90
2022-11-30T03:01:27.506Z,996.92
2022-11-30T03:02:27.509Z,996.93
2022-11-30T03:03:27.466Z,996.90
2022-11-30T03:04:27.498Z,996.98
2022-11-30T03:05:27.449Z,996.99
2022-11-30T03:06:28.446Z,996.91
2022-11-30T03:07:27.487Z,996.93
2022-11-30T03:08:27.430Z,996.94
2022-11-30T03:09:27.424Z,996.89
2022-11-30T03:10:27.438Z,996.98
2022-11-30T03:11:27.408Z,996.91
2022-11-30T03:12:27.400Z,996.94
2022-11-30T03:13:27.393Z,996.99
2022-11-30T03:14:27.381Z,996.96
2022-11-30T03:15:27.400Z,997.00
2022-11-30T03:16:27.372Z,996.99
2022-11-30T03:17:27.365Z,996.98
2022-11-30T03:18:27.354Z,997.04
2022-11-30T03:19:27.352Z,996.96
2022-11-30T03:20:27.365Z,996.97
2022-11-30T03:21:27.336Z,996.98
2022-11-30T03:22:27.324Z,997.03
2022-11-30T03:23:27.319Z,997.03
2022-11-30T03:24:27.304Z,997.07
2022-11-30T03:25:27.326Z,997.05
2022-11-30T03:26:27.290Z,996.98
2022-11-30T03:27:27.285Z,997.04
2022-11-30T03:28:27.280Z,997.01
2022-11-30T03:29:27.270Z,997.10
2022-11-30T03:30:27.294Z,997.03
2022-11-30T03:31:27.277Z,997.13
2022-11-30T03:32:27.249Z,997.13
2022-11-30T03:33:27.244Z,997.16
2022-11-30T03:34:27.235Z,997.13
2022-11-30T03:35:27.251Z,997.15
2022-11-30T03:36:27.216Z,997.14
2022-11-30T03:37:27.210Z,997.18
2022-11-30T03:38:27.203Z,997.19
2022-11-30T03:39:27.193Z,997.18
2022-11-30T03:40:27.211Z,997.17
2022-11-30T03:41:27.176Z,997.16
2022-11-30T03:42:27.168Z,997.20
2022-11-30T03:43:27.162Z,997.16
2022-11-30T03:44:27.152Z,997.18
2022-11-30T03:45:27.169Z,997.11
2022-11-30T03:46:27.192Z,997.16
2022-11-30T03:47:27.125Z,997.20
2022-11-30T03:48:27.121Z,997.19
2022-11-30T03:49:27.108Z,997.23
2022-11-30T03:50:27.133Z,997.26
2022-11-30T03:51:27.094Z,997.18
2022-11-30T03:52:27.090Z,997.26
2022-11-30T03:53:27.078Z,997.22
2022-11-30T03:54:27.071Z,997.21
2022-11-30T03:55:27.085Z,997.27
2022-11-30T03:56:27.055Z,997.30
2022-11-30T03:57:27.051Z,997.29
2022-11-30T03:58:27.038Z,997.24
2022-11-30T03:59:27.032Z,997.26
2022-11-30T04:00:27.048Z,997.24
2022-11-30T04:01:27.091Z,997.27
2022-11-30T04:02:27.049Z,997.31
2022-11-30T04:03:26.999Z,997.23
2022-11-30T04:04:26.992Z,997.30
2022-11-30T04:05:27.011Z,997.30
2022-11-30T04:06:26.980Z,997.24
2022-11-30T04:07:27.000Z,997.31
2022-11-30T04:08:26.963Z,997.32
2022-11-30T04:09:26.955Z,997.30
2022-11-30T04:10:26.967Z,997.33
2022-11-30T04:11:26.941Z,997.34
2022-11-30T04:12:26.931Z,997.34
2022-11-30T04:13:26.927Z,997.31
2022-11-30T04:14:26.917Z,997.31
2022-11-30T04:15:26.921Z,997.36
2022-11-30T04:16:27.917Z,997.34
2022-11-30T04:17:26.891Z,997.28
2022-11-30T04:18:26.886Z,997.34
2022-11-30T04:19:26.876Z,997.33
2022-11-30T04:20:26.910Z,997.31
2022-11-30T04:21:26.863Z,997.34
2022-11-30T04:22:26.855Z,997.35
2022-11-30T04:23:26.846Z,997.33
2022-11-30T04:24:26.841Z,997.29
2022-11-30T04:25:26.830Z,997.30
2022-11-30T04:26:26.863Z,997.36
2022-11-30T04:27:26.804Z,997.33
2022-11-30T04:28:27.804Z,997.31
2022-11-30T04:29:26.801Z,997.36
2022-11-30T04:30:26.790Z,997.31
2022-11-30T04:31:26.841Z,997.34
2022-11-30T04:32:26.777Z,997.27
2022-11-30T04:33:26.766Z,997.34
2022-11-30T04:34:26.759Z,997.27
2022-11-30T04:35:26.781Z,997.28
2022-11-30T04:36:26.791Z,997.26
2022-11-30T04:37:26.738Z,997.33
2022-11-30T04:38:26.731Z,997.29
2022-11-30T04:39:26.724Z,997.30
2022-11-30T04:40:26.715Z,997.29
2022-11-30T04:41:26.737Z,997.34
2022-11-30T04:42:26.703Z,997.24
2022-11-30T04:43:26.690Z,997.30
2022-11-30T04:44:26.688Z,997.26
2022-11-30T04:45:30.061Z,997.25
2022-11-30T04:46:27.713Z,997.25
2022-11-30T04:47:26.664Z,997.30
2022-11-30T04:48:26.652Z,997.24
2022-11-30T04:49:26.648Z,997.26
2022-11-30T04:50:26.639Z,997.26
2022-11-30T04:51:26.663Z,997.25
2022-11-30T04:52:26.626Z,997.23
2022-11-30T04:53:26.618Z,997.21
2022-11-30T04:54:26.613Z,997.21
2022-11-30T04:55:26.607Z,997.22
2022-11-30T04:56:26.617Z,997.27
2022-11-30T04:57:26.591Z,997.21
2022-11-30T04:58:26.583Z,997.24
2022-11-30T04:59:26.578Z,997.22
2022-11-30T05:00:26.568Z,997.28
2022-11-30T05:01:26.616Z,997.28
2022-11-30T05:02:26.549Z,997.32
2022-11-30T05:03:26.546Z,997.31
2022-11-30T05:04:26.583Z,997.30
2022-11-30T05:05:26.528Z,997.34
2022-11-30T05:06:26.542Z,997.36
2022-11-30T05:07:26.557Z,997.35
2022-11-30T05:08:26.501Z,997.34
2022-11-30T05:09:26.504Z,997.33
2022-11-30T05:10:26.485Z,997.30
2022-11-30T05:11:26.503Z,997.30
2022-11-30T05:12:26.471Z,997.38
2022-11-30T05:13:26.467Z,997.36
2022-11-30T05:14:26.452Z,997.36
2022-11-30T05:15:26.447Z,997.40
2022-11-30T05:16:26.530Z,997.40
2022-11-30T05:17:26.435Z,997.41
2022-11-30T05:18:26.429Z,997.46
2022-11-30T05:19:26.412Z,997.37
2022-11-30T05:20:26.471Z,997.43
2022-11-30T05:21:26.431Z,997.37
2022-11-30T05:22:26.393Z,997.40
2022-11-30T05:23:26.385Z,997.43
2022-11-30T05:24:26.379Z,997.38
2022-11-30T05:25:26.365Z,997.44
2022-11-30T05:26:26.398Z,997.41
2022-11-30T05:27:26.354Z,997.45
2022-11-30T05:28:26.351Z,997.47
2022-11-30T05:29:26.337Z,997.55
2022-11-30T05:30:26.333Z,997.43
2022-11-30T05:31:26.363Z,997.54
2022-11-30T05:32:26.335Z,997.58
2022-11-30T05:33:26.305Z,997.52
2022-11-30T05:34:26.294Z,997.53
2022-11-30T05:35:26.291Z,997.60
2022-11-30T05:36:26.286Z,997.59
2022-11-30T05:37:26.299Z,997.55
2022-11-30T05:38:26.268Z,997.56
2022-11-30T05:39:26.262Z,997.56
2022-11-30T05:40:26.248Z,997.63
2022-11-30T05:41:26.247Z,997.63
2022-11-30T05:42:26.260Z,997.63
2022-11-30T05:43:26.237Z,997.66
2022-11-30T05:44:26.220Z,997.57
2022-11-30T05:45:26.216Z,997.56
2022-11-30T05:46:26.231Z,997.56
2022-11-30T05:47:26.221Z,997.59
2022-11-30T05:48:26.184Z,997.60
2022-11-30T05:49:26.179Z,997.59
2022-11-30T05:50:26.176Z,997.64
2022-11-30T05:51:26.160Z,997.61
2022-11-30T05:52:26.178Z,997.60
2022-11-30T05:53:26.147Z,997.60
2022-11-30T05:54:26.136Z,997.65
2022-11-30T05:55:26.133Z,997.68
2022-11-30T05:56:26.121Z,997.72
2022-11-30T05:57:26.888Z,997.66
2022-11-30T05:58:26.103Z,997.63
2022-11-30T05:59:26.102Z,997.70
2022-11-30T06:00:26.102Z,997.66
2022-11-30T06:01:26.087Z,997.66
2022-11-30T06:02:28.352Z,997.66
2022-11-30T06:03:27.119Z,997.70
2022-11-30T06:04:26.061Z,997.71
2022-11-30T06:05:26.048Z,997.76
2022-11-30T06:06:26.044Z,997.76
2022-11-30T06:07:26.091Z,997.81
2022-11-30T06:08:26.030Z,997.76
2022-11-30T06:09:26.019Z,997.72
2022-11-30T06:10:26.018Z,997.72
2022-11-30T06:11:26.007Z,997.74
2022-11-30T06:12:26.029Z,997.72
2022-11-30T06:13:28.825Z,997.69
2022-11-30T06:14:27.010Z,997.65
2022-11-30T06:15:25.975Z,997.71
2022-11-30T06:16:26.012Z,997.65
2022-11-30T06:17:25.986Z,997.67
2022-11-30T06:18:25.951Z,997.70
2022-11-30T06:19:25.946Z,997.71
2022-11-30T06:20:25.946Z,997.76
2022-11-30T06:21:25.931Z,997.76
2022-11-30T06:22:25.952Z,997.79
2022-11-30T06:23:25.921Z,997.74
2022-11-30T06:24:25.911Z,997.80
2022-11-30T06:25:25.904Z,997.81
2022-11-30T06:26:25.899Z,997.80
2022-11-30T06:27:25.913Z,997.82
2022-11-30T06:28:25.882Z,997.81
2022-11-30T06:29:25.870Z,997.83
2022-11-30T06:30:25.898Z,997.78
2022-11-30T06:31:25.875Z,997.78
2022-11-30T06:32:25.871Z,997.73
2022-11-30T06:33:25.840Z,997.76
2022-11-30T06:34:25.833Z,997.75
2022-11-30T06:35:25.829Z,997.77
2022-11-30T06:36:27.226Z,997.80
2022-11-30T06:37:25.834Z,997.75
2022-11-30T06:38:25.800Z,997.80
2022-11-30T06:39:50.004Z,997.76
2022-11-30T06:40:27.784Z,997.81
2022-11-30T06:41:25.774Z,997.80
2022-11-30T06:42:25.789Z,997.83
2022-11-30T06:43:25.760Z,997.85
2022-11-30T06:44:26.757Z,997.85
2022-11-30T06:45:25.799Z,997.85
2022-11-30T06:46:25.740Z,997.81
2022-11-30T06:47:25.745Z,997.83
2022-11-30T06:48:26.725Z,997.82
2022-11-30T06:49:25.717Z,997.80
2022-11-30T06:50:25.718Z,997.78
2022-11-30T06:51:25.702Z,997.81
2022-11-30T06:52:25.718Z,997.82
2022-11-30T06:53:25.682Z,997.82
2022-11-30T06:54:25.681Z,997.79
2022-11-30T06:55:25.670Z,997.80
2022-11-30T06:56:25.674Z,997.84
2022-11-30T06:57:25.678Z,997.90
2022-11-30T06:58:25.646Z,997.89
2022-11-30T06:59:25.645Z,997.90
2022-11-30T07:00:25.633Z,997.94
2022-11-30T07:01:25.666Z,997.89
2022-11-30T07:02:25.640Z,997.93
2022-11-30T07:03:25.607Z,997.93
2022-11-30T07:04:25.633Z,997.93
2022-11-30T07:05:25.583Z,997.96
2022-11-30T07:06:25.579Z,998.01
2022-11-30T07:07:25.629Z,998.02
2022-11-30T07:08:25.564Z,997.94
2022-11-30T07:09:25.553Z,997.97
2022-11-30T07:10:25.553Z,997.94
2022-11-30T07:11:25.543Z,997.94
2022-11-30T07:12:25.557Z,997.96
2022-11-30T07:13:25.523Z,997.97
2022-11-30T07:14:25.519Z,998.02
2022-11-30T07:15:25.655Z,997.98
2022-11-30T07:16:25.527Z,998.05
2022-11-30T07:17:25.521Z,997.93
2022-11-30T07:18:31.493Z,997.93
2022-11-30T07:19:27.484Z,998.00
2022-11-30T07:20:25.481Z,997.99
2022-11-30T07:21:25.466Z,997.99
2022-11-30T07:22:25.480Z,997.94
2022-11-30T07:23:25.453Z,998.02
2022-11-30T07:24:25.450Z,997.97
2022-11-30T07:25:25.434Z,998.04
2022-11-30T07:26:25.446Z,998.04
2022-11-30T07:27:25.457Z,998.04
2022-11-30T07:28:25.413Z,998.01
2022-11-30T07:29:25.405Z,998.01
2022-11-30T07:30:25.398Z,998.08
2022-11-30T07:31:25.487Z,998.05
2022-11-30T07:32:25.407Z,998.02
2022-11-30T07:33:25.374Z,998.00
2022-11-30T07:34:25.366Z,998.07
2022-11-30T07:35:25.358Z,998.05
2022-11-30T07:36:25.354Z,998.10
2022-11-30T07:37:25.370Z,998.08
2022-11-30T07:38:25.339Z,998.12
2022-11-30T07:39:25.328Z,998.13
2022-11-30T07:40:25.322Z,998.14
2022-11-30T07:41:25.315Z,998.09
2022-11-30T07:42:25.303Z,998.10
2022-11-30T07:43:25.319Z,998.07
2022-11-30T07:44:25.298Z,998.10
2022-11-30T07:45:25.279Z,998.05
2022-11-30T07:46:25.274Z,998.09
2022-11-30T07:47:25.265Z,998.04
2022-11-30T07:48:25.286Z,998.06
2022-11-30T07:49:25.254Z,998.00
2022-11-30T07:50:25.247Z,998.00
2022-11-30T07:51:25.239Z,998.10
2022-11-30T07:52:25.232Z,998.08
2022-11-30T07:53:25.253Z,998.14
2022-11-30T07:54:25.217Z,998.15
2022-11-30T07:55:25.220Z,998.07
2022-11-30T07:56:25.209Z,998.16
2022-11-30T07:57:25.194Z,998.15
2022-11-30T07:58:25.212Z,998.20
2022-11-30T07:59:25.184Z,998.19
2022-11-30T08:00:25.221Z,998.20
2022-11-30T08:01:25.265Z,998.11
2022-11-30T08:02:25.253Z,998.18
2022-11-30T08:03:25.177Z,998.14
2022-11-30T08:04:25.191Z,998.26
2022-11-30T08:05:25.138Z,998.18
2022-11-30T08:06:25.130Z,998.17
2022-11-30T08:07:25.224Z,998.21
2022-11-30T08:08:25.147Z,998.20
2022-11-30T08:09:25.110Z,998.24
2022-11-30T08:10:25.185Z,998.20
2022-11-30T08:11:25.092Z,998.22
2022-11-30T08:12:25.082Z,998.19
2022-11-30T08:13:25.099Z,998.23
2022-11-30T08:14:25.065Z,998.25
2022-11-30T08:15:30.800Z,998.25
2022-11-30T08:16:27.122Z,998.19
2022-11-30T08:17:25.045Z,998.25
2022-11-30T08:18:25.062Z,998.15
2022-11-30T08:19:25.029Z,998.22
2022-11-30T08:20:25.142Z,998.24
2022-11-30T08:21:25.017Z,998.27
2022-11-30T08:22:25.009Z,998.25
2022-11-30T08:23:25.027Z,998.28
2022-11-30T08:24:25.019Z,998.23
2022-11-30T08:25:24.985Z,998.26
2022-11-30T08:26:24.981Z,998.29
2022-11-30T08:27:24.978Z,998.28
2022-11-30T08:28:24.993Z,998.27
2022-11-30T08:29:24.954Z,998.22
2022-11-30T08:30:29.342Z,998.26
2022-11-30T08:31:27.003Z,998.25
2022-11-30T08:32:24.934Z,998.32
2022-11-30T08:33:24.948Z,998.28
2022-11-30T08:34:24.919Z,998.25
2022-11-30T08:35:24.921Z,998.22
2022-11-30T08:36:24.903Z,998.29
2022-11-30T08:37:24.895Z,998.27
2022-11-30T08:38:24.912Z,998.25
2022-11-30T08:39:24.879Z,998.26
2022-11-30T08:40:24.873Z,998.31
2022-11-30T08:41:24.870Z,998.27
2022-11-30T08:42:24.857Z,998.34
2022-11-30T08:43:24.876Z,998.30
2022-11-30T08:44:24.844Z,998.28
2022-11-30T08:45:24.837Z,998.32
2022-11-30T08:47:26.842Z,998.25
2022-11-30T08:48:24.841Z,998.37
2022-11-30T08:49:25.376Z,998.34
2022-11-30T08:50:24.800Z,998.36
2022-11-30T08:51:24.794Z,998.32
2022-11-30T08:52:24.788Z,998.31
2022-11-30T08:53:24.801Z,998.32
2022-11-30T08:54:24.769Z,998.31
2022-11-30T08:55:24.761Z,998.35
2022-11-30T08:56:24.755Z,998.34
2022-11-30T08:57:24.750Z,998.40
2022-11-30T08:58:24.763Z,998.38
2022-11-30T08:59:24.733Z,998.44
2022-11-30T09:00:24.722Z,998.44
2022-11-30T09:01:27.098Z,998.43
2022-11-30T09:02:26.735Z,998.42
2022-11-30T09:03:24.731Z,998.45
2022-11-30T09:04:24.697Z,998.45
2022-11-30T09:05:24.683Z,998.50
2022-11-30T09:06:24.675Z,998.43
2022-11-30T09:07:24.742Z,998.42
2022-11-30T09:08:24.687Z,998.43
2022-11-30T09:09:24.656Z,998.43
2022-11-30T09:10:24.650Z,998.49
2022-11-30T09:11:24.640Z,998.47
2022-11-30T09:12:24.626Z,998.45
2022-11-30T09:13:24.641Z,998.48
2022-11-30T09:14:24.613Z,998.43
2022-11-30T09:15:24.603Z,998.44
2022-11-30T09:16:24.633Z,998.50
2022-11-30T09:17:24.585Z,998.47
2022-11-30T09:18:24.608Z,998.46
2022-11-30T09:19:24.571Z,998.47
2022-11-30T09:20:25.574Z,998.49
2022-11-30T09:21:24.563Z,998.45
2022-11-30T09:22:25.552Z,998.46
2022-11-30T09:23:24.567Z,998.50
2022-11-30T09:24:24.539Z,998.55
2022-11-30T09:25:24.531Z,998.60
2022-11-30T09:26:24.527Z,998.55
2022-11-30T09:27:24.519Z,998.53
2022-11-30T09:28:24.543Z,998.55
2022-11-30T09:29:24.509Z,998.58
2022-11-30T09:30:24.680Z,998.64
2022-11-30T09:31:24.488Z,998.55
2022-11-30T09:32:24.473Z,998.50
2022-11-30T09:33:24.489Z,998.56
2022-11-30T09:34:24.455Z,998.57
2022-11-30T09:35:25.408Z,998.47
2022-11-30T09:36:24.444Z,998.46
2022-11-30T09:37:24.433Z,998.45
2022-11-30T09:38:24.450Z,998.57
2022-11-30T09:39:24.408Z,998.57
2022-11-30T09:40:25.412Z,998.55
2022-11-30T09:41:24.401Z,998.54
2022-11-30T09:42:24.399Z,998.56
2022-11-30T09:43:24.418Z,998.55
2022-11-30T09:44:24.381Z,998.50
2022-11-30T09:45:24.377Z,998.44
2022-11-30T09:46:24.401Z,998.53
2022-11-30T09:47:27.512Z,998.48
2022-11-30T09:48:26.386Z,998.54
2022-11-30T09:49:24.342Z,998.53
2022-11-30T09:50:24.334Z,998.48
2022-11-30T09:51:24.327Z,998.56
2022-11-30T09:52:24.344Z,998.49
2022-11-30T09:53:29.099Z,998.52
2022-11-30T09:54:26.322Z,998.50
2022-11-30T09:55:24.294Z,998.50
2022-11-30T09:56:24.916Z,998.46
2022-11-30T09:57:24.286Z,998.44
2022-11-30T09:58:24.274Z,998.41
2022-11-30T09:59:24.290Z,998.48
2022-11-30T10:00:24.257Z,998.47
2022-11-30T10:01:24.321Z,998.46
2022-11-30T10:02:24.390Z,998.47
2022-11-30T10:03:24.288Z,998.44
2022-11-30T10:04:24.262Z,998.41
2022-11-30T10:05:24.226Z,998.41
2022-11-30T10:06:24.213Z,998.50
2022-11-30T10:07:24.320Z,998.44
2022-11-30T10:08:24.198Z,998.48
2022-11-30T10:09:24.218Z,998.52
2022-11-30T10:10:32.351Z,998.48
2022-11-30T10:11:26.173Z,998.46
2022-11-30T10:12:24.166Z,998.56
2022-11-30T10:13:24.157Z,998.48
2022-11-30T10:14:24.179Z,998.55
2022-11-30T10:15:24.144Z,998.52
2022-11-30T10:16:24.208Z,998.58
2022-11-30T10:17:24.123Z,998.56
2022-11-30T10:18:24.117Z,998.58
2022-11-30T10:19:24.133Z,998.54
2022-11-30T10:20:24.103Z,998.54
2022-11-30T10:21:24.094Z,998.49
2022-11-30T10:22:24.085Z,998.52
2022-11-30T10:23:24.076Z,998.54
2022-11-30T10:24:24.102Z,998.46
2022-11-30T10:25:24.060Z,998.44
2022-11-30T10:26:25.057Z,998.55
2022-11-30T10:27:24.048Z,998.49
2022-11-30T10:28:46.458Z,998.49
2022-11-30T10:29:26.056Z,998.58
2022-11-30T10:30:24.026Z,998.45
2022-11-30T10:31:24.092Z,998.47
2022-11-30T10:32:24.009Z,998.45
2022-11-30T10:33:23.997Z,998.47
2022-11-30T10:34:24.019Z,998.41
2022-11-30T10:35:23.989Z,998.46
2022-11-30T10:36:23.976Z,998.46
2022-11-30T10:37:23.970Z,998.48
2022-11-30T10:38:23.968Z,998.44
2022-11-30T10:39:23.983Z,998.45
2022-11-30T10:40:23.944Z,998.51
2022-11-30T10:41:23.931Z,998.50
2022-11-30T10:42:24.934Z,998.46
2022-11-30T10:43:23.924Z,998.53
2022-11-30T10:44:23.946Z,998.47
2022-11-30T10:45:23.909Z,998.47
2022-11-30T10:46:23.927Z,998.53
2022-11-30T10:47:23.888Z,998.48
2022-11-30T10:48:23.893Z,998.50
2022-11-30T10:49:23.875Z,998.47
2022-11-30T10:50:23.895Z,998.54
2022-11-30T10:51:23.858Z,998.43
2022-11-30T10:52:23.855Z,998.50
2022-11-30T10:53:23.860Z,998.50
2022-11-30T10:54:23.839Z,998.53
2022-11-30T10:55:23.851Z,998.51
2022-11-30T10:56:24.822Z,998.47
2022-11-30T10:57:23.810Z,998.44
2022-11-30T10:58:23.842Z,998.50
2022-11-30T10:59:23.800Z,998.50
2022-11-30T11:00:23.816Z,998.44
2022-11-30T11:01:23.859Z,998.48
2022-11-30T11:02:23.820Z,998.46
2022-11-30T11:03:23.772Z,998.43
2022-11-30T11:04:23.837Z,998.40
2022-11-30T11:05:23.783Z,998.42
2022-11-30T11:06:23.748Z,998.44
2022-11-30T11:07:23.859Z,998.41
2022-11-30T11:08:23.774Z,998.38
2022-11-30T11:09:23.726Z,998.36
2022-11-30T11:10:23.747Z,998.40
2022-11-30T11:11:23.710Z,998.44
2022-11-30T11:12:23.711Z,998.42
2022-11-30T11:13:23.694Z,998.45
2022-11-30T11:14:23.695Z,998.40
2022-11-30T11:15:23.705Z,998.47
2022-11-30T11:16:23.780Z,998.43
2022-11-30T11:17:23.679Z,998.55
2022-11-30T11:18:23.668Z,998.53
2022-11-30T11:19:23.651Z,998.50
2022-11-30T11:20:23.673Z,998.47
2022-11-30T11:21:23.632Z,998.54
2022-11-30T11:22:23.629Z,998.51
2022-11-30T11:23:23.632Z,998.52
2022-11-30T11:24:23.620Z,998.55
2022-11-30T11:25:23.642Z,998.63
2022-11-30T11:26:23.596Z,998.59
2022-11-30T11:27:23.589Z,998.61
2022-11-30T11:28:23.581Z,998.61
2022-11-30T11:29:23.573Z,998.58
2022-11-30T11:30:23.568Z,998.61
2022-11-30T11:31:23.605Z,998.63
2022-11-30T11:32:23.551Z,998.62
2022-11-30T11:33:23.564Z,998.59
2022-11-30T11:34:23.549Z,998.55
2022-11-30T11:35:23.584Z,998.56
2022-11-30T11:36:23.522Z,998.61
2022-11-30T11:37:23.514Z,998.56
2022-11-30T11:38:23.513Z,998.61
2022-11-30T11:39:23.504Z,998.61
2022-11-30T11:40:23.490Z,998.54
2022-11-30T11:41:23.509Z,998.56
2022-11-30T11:42:23.477Z,998.59
2022-11-30T11:43:23.469Z,998.65
2022-11-30T11:44:23.469Z,998.60
2022-11-30T11:45:23.469Z,998.61
2022-11-30T11:46:23.520Z,998.58
2022-11-30T11:47:23.437Z,998.57
2022-11-30T11:48:28.726Z,998.55
2022-11-30T11:49:25.416Z,998.51
2022-11-30T11:50:43.237Z,998.49
2022-11-30T11:51:25.434Z,998.49
2022-11-30T11:52:23.403Z,998.49
2022-11-30T11:53:23.434Z,998.46
2022-11-30T11:54:23.388Z,998.43
2022-11-30T11:55:23.388Z,998.46
2022-11-30T11:56:23.392Z,998.41
2022-11-30T11:57:23.368Z,998.40
2022-11-30T11:58:23.358Z,998.41
2022-11-30T11:59:25.791Z,998.44
2022-11-30T12:00:24.339Z,998.36
2022-11-30T12:01:40.691Z,998.40
2022-11-30T12:02:25.357Z,998.38
2022-11-30T12:03:23.317Z,998.39
2022-11-30T12:04:23.337Z,998.39
2022-11-30T12:05:23.299Z,998.45
2022-11-30T12:06:23.318Z,998.40
2022-11-30T12:07:23.331Z,998.34
2022-11-30T12:08:23.305Z,998.45
2022-11-30T12:09:23.269Z,998.38
2022-11-30T12:10:50.812Z,998.39
2022-11-30T12:11:25.287Z,998.44
2022-11-30T12:12:23.244Z,998.43
2022-11-30T12:13:23.236Z,998.44
2022-11-30T12:14:23.230Z,998.51
2022-11-30T12:15:23.228Z,998.52
2022-11-30T12:16:23.246Z,998.50
2022-11-30T12:17:23.228Z,998.54
2022-11-30T12:18:24.391Z,998.57
2022-11-30T12:19:24.186Z,998.56
2022-11-30T12:20:23.179Z,998.57
2022-11-30T12:21:23.174Z,998.60
2022-11-30T12:22:23.191Z,998.51
2022-11-30T12:23:23.158Z,998.58
2022-11-30T12:24:23.148Z,998.51
2022-11-30T12:25:23.153Z,998.50
2022-11-30T12:26:23.129Z,998.52
2022-11-30T12:27:23.177Z,998.57
2022-11-30T12:28:23.119Z,998.58
2022-11-30T12:29:23.111Z,998.57